Time;durP1;ratioP1;P1;durP2;ratioP2;P2;SDS_P1;SDS_P2;PMS_P1;PMS_P2;Temp;Humidity;BMP_temperature;BMP_pressure;BME280_temperature;BME280_humidity;BME280_pressure;Samples;Min_cycle;Max_cycle;Signal;HPM_P1;HPM_P2
2021/12/18 00:01:04;;;;;;;33.40;7.03;;;6.80;99.90;;;;;;5062322;28;20028;-90
2021/12/18 00:03:30;;;;;;;30.67;6.90;;;6.00;99.90;;;;;;5062610;28;20051;-91
2021/12/18 00:06:08;;;;;;;25.33;6.73;;;6.50;99.90;;;;;;5051296;28;20072;-91
2021/12/18 00:08:35;;;;;;;31.63;6.83;;;7.70;99.90;;;;;;5037713;28;20048;-91
2021/12/18 00:11:13;;;;;;;31.40;6.77;;;6.20;99.90;;;;;;5058503;22;20111;-91
2021/12/18 00:13:39;;;;;;;31.83;7.43;;;6.60;99.90;;;;;;5055134;28;20049;-91
2021/12/18 00:18:31;;;;;;;26.13;6.30;;;6.50;99.90;;;;;;5101049;22;20059;-90
2021/12/18 00:23:31;;;;;;;42.73;12.17;;;6.50;99.90;;;;;;5079751;22;20076;-90
2021/12/18 00:26:15;;;;;;;34.17;7.27;;;7.00;99.90;;;;;;5056972;28;20126;-89
2021/12/18 00:28:41;;;;;;;37.03;6.97;;;6.90;99.90;;;;;;5057202;28;20477;-89
2021/12/18 00:33:38;;;;;;;18.57;5.50;;;6.50;99.90;;;;;;5080363;22;20416;-90
2021/12/18 00:36:15;;;;;;;14.90;4.57;;;6.70;99.90;;;;;;5057084;28;20048;-91
2021/12/18 00:38:42;;;;;;;17.70;4.63;;;6.40;99.90;;;;;;5057323;28;20602;-91
2021/12/18 00:44:16;;;;;;;25.33;7.97;;;6.20;99.90;;;;;;5057134;28;20060;-90
2021/12/18 00:46:44;;;;;;;20.57;5.70;;;6.90;99.90;;;;;;5057504;28;20532;-91
2021/12/18 00:49:16;;;;;;;18.23;4.20;;;7.00;99.90;;;;;;5060373;22;20045;-91
2021/12/18 00:51:51;;;;;;;15.83;3.77;;;6.30;99.90;;;;;;5053764;28;20080;-90
2021/12/18 00:54:37;;;;;;;16.20;4.37;;;7.10;99.90;;;;;;5053616;28;20052;-91
2021/12/18 00:57:03;;;;;;;15.73;3.73;;;6.30;99.90;;;;;;5068782;22;20048;-90
2021/12/18 01:00:14;;;;;;;18.93;4.90;;;6.20;99.90;;;;;;5093294;28;20560;-89
2021/12/18 01:02:59;;;;;;;18.30;4.40;;;7.50;99.90;;;;;;5015229;28;20060;-90
2021/12/18 01:05:29;;;;;;;17.53;4.53;;;6.00;99.90;;;;;;5076289;28;20044;-90
2021/12/18 01:07:57;;;;;;;17.73;4.97;;;6.00;99.90;;;;;;5076552;28;20059;-90
2021/12/18 01:16:16;;;;;;;16.87;4.63;;;6.30;99.90;;;;;;5059095;22;20099;-90
2021/12/18 01:25:03;;;;;;;18.67;4.93;;;6.90;99.90;;;;;;5015603;28;20042;-90
2021/12/18 01:27:38;;;;;;;19.43;4.80;;;6.30;99.90;;;;;;5017029;28;20416;-90
2021/12/18 01:30:22;;;;;;;20.93;4.93;;;6.60;99.90;;;;;;5016307;28;20056;-90
2021/12/18 01:33:38;;;;;;;30.33;6.20;;;6.10;99.90;;;;;;5052977;22;20032;-90
2021/12/18 01:36:11;;;;;;;20.57;5.87;;;6.20;99.90;;;;;;5061841;28;20396;-90
2021/12/18 01:38:49;;;;;;;28.97;5.63;;;6.50;99.90;;;;;;5052996;28;20045;-90
2021/12/18 01:41:16;;;;;;;18.60;4.73;;;6.80;99.90;;;;;;5075539;22;20053;-90
2021/12/18 01:47:04;;;;;;;17.90;4.90;;;7.00;99.90;;;;;;5077864;22;20056;-90
2021/12/18 01:52:52;;;;;;;24.50;5.63;;;6.20;99.90;;;;;;5035330;28;20045;-90
2021/12/18 01:55:36;;;;;;;25.50;5.80;;;6.10;99.90;;;;;;5035650;28;20067;-90
2021/12/18 01:58:19;;;;;;;26.90;5.93;;;6.30;99.90;;;;;;5039836;22;20065;-91
2021/12/18 02:00:49;;;;;;;21.55;4.97;;;6.20;99.90;;;;;;5032152;28;20389;-90
2021/12/18 02:05:54;;;;;;;24.87;8.40;;;6.30;99.90;;;;;;5082249;22;20068;-90
2021/12/18 02:22:18;;;;;;;15.30;4.20;;;6.00;99.90;;;;;;5050168;22;20051;-91
2021/12/18 02:24:47;;;;;;;14.93;4.00;;;6.00;99.90;;;;;;5075158;28;20088;-90
2021/12/18 02:27:31;;;;;;;17.27;4.53;;;6.00;99.90;;;;;;5076237;28;20047;-90
2021/12/18 02:30:07;;;;;;;;;;;5.90;99.90;;;;;;5080002;22;20044;-90
2021/12/18 02:32:36;;;;;;;25.80;5.03;;;6.20;99.90;;;;;;5047058;22;19924;-90
2021/12/18 02:35:32;;;;;;;19.83;4.43;;;5.90;99.90;;;;;;5060485;22;20052;-89
2021/12/18 02:38:46;;;;;;;22.80;4.87;;;6.70;99.90;;;;;;5055745;28;20076;-90
2021/12/18 02:41:55;;;;;;;25.13;4.87;;;6.10;99.90;;;;;;5054345;28;20131;-90
2021/12/18 02:44:24;;;;;;;23.57;4.43;;;6.10;99.90;;;;;;5054519;28;20087;-90
2021/12/18 02:46:50;;;;;;;15.17;3.80;;;5.90;99.90;;;;;;5054836;28;20040;-90
2021/12/18 02:49:19;;;;;;;13.17;3.20;;;6.80;99.90;;;;;;5088485;22;20140;-91
2021/12/18 02:52:11;;;;;;;13.20;3.30;;;5.90;99.90;;;;;;5048779;22;20049;-91
2021/12/18 02:54:49;;;;;;;12.43;3.00;;;6.90;99.90;;;;;;5018766;28;20038;-90
2021/12/18 02:57:31;;;;;;;10.90;2.60;;;6.40;99.90;;;;;;5046189;28;20033;-90
2021/12/18 02:59:59;;;;;;;10.37;2.57;;;6.00;99.90;;;;;;5038369;28;20083;-90
2021/12/18 03:02:45;;;;;;;7.87;2.17;;;5.70;99.90;;;;;;5036713;28;20025;-90
2021/12/18 03:05:30;;;;;;;10.27;2.43;;;5.70;99.90;;;;;;5058560;22;20106;-90
2021/12/18 03:08:11;;;;;;;14.80;2.77;;;6.30;99.90;;;;;;5079597;28;20127;-91
2021/12/18 03:25:39;;;;;;;10.30;2.23;;;5.80;99.90;;;;;;5077640;28;20051;-91
2021/12/18 03:28:27;;;;;;;8.70;2.10;;;5.90;99.90;;;;;;5079431;28;20052;-90
2021/12/18 03:31:04;;;;;;;9.70;2.50;;;5.80;99.90;;;;;;5086730;28;20408;-90
2021/12/18 03:33:30;;;;;;;9.47;2.23;;;5.60;99.90;;;;;;5078236;28;20130;-90
2021/12/18 03:35:57;;;;;;;8.50;2.20;;;6.30;99.90;;;;;;5090805;22;20071;-90
2021/12/18 03:38:23;;;;;;;11.37;2.40;;;5.70;99.90;;;;;;5039182;28;20045;-90
2021/12/18 03:41:01;;;;;;;9.17;2.20;;;5.50;99.90;;;;;;5049100;22;20079;-90
2021/12/18 03:44:18;;;;;;;10.17;2.20;;;6.50;99.90;;;;;;5079131;28;20085;-91
2021/12/18 03:46:58;;;;;;;11.00;2.50;;;5.80;99.90;;;;;;5076350;28;20044;-90
2021/12/18 03:49:24;;;;;;;10.07;2.53;;;5.70;99.90;;;;;;5058104;22;20382;-91
2021/12/18 03:51:53;;;;;;;10.67;2.40;;;5.60;99.90;;;;;;5069631;28;20155;-90
2021/12/18 03:54:19;;;;;;;8.70;2.17;;;5.70;99.90;;;;;;5054145;28;20044;-90
2021/12/18 03:56:48;;;;;;;9.47;2.20;;;5.10;99.90;;;;;;5054959;28;20037;-90
2021/12/18 03:59:16;;;;;;;9.07;2.00;;;5.80;99.90;;;;;;5071267;28;20084;-90
2021/12/18 04:04:24;;;;;;;7.63;1.80;;;5.80;99.90;;;;;;5097763;22;20265;-89
2021/12/18 04:07:02;;;;;;;7.50;1.80;;;5.50;99.90;;;;;;5053700;28;20451;-90
2021/12/18 04:09:37;;;;;;;8.13;1.90;;;5.50;99.90;;;;;;5054374;28;20481;-90
2021/12/18 04:12:04;;;;;;;8.10;1.90;;;5.80;99.90;;;;;;5054155;28;20396;-90
2021/12/18 04:14:32;;;;;;;8.83;1.93;;;5.70;99.90;;;;;;5083915;22;20044;-90
2021/12/18 04:17:14;;;;;;;10.13;2.20;;;5.60;99.90;;;;;;5077920;28;20066;-90
2021/12/18 04:19:46;;;;;;;10.83;2.37;;;6.20;99.90;;;;;;5077251;28;20086;-89
2021/12/18 04:22:18;;;;;;;8.23;1.97;;;6.30;99.90;;;;;;5076851;28;20043;-90
2021/12/18 04:24:44;;;;;;;8.50;2.03;;;5.30;99.90;;;;;;5081064;22;20048;-90
2021/12/18 04:27:14;;;;;;;11.00;2.30;;;6.70;99.90;;;;;;5074439;28;20511;-89
2021/12/18 04:29:49;;;;;;;8.57;2.10;;;5.40;99.90;;;;;;5074072;28;20419;-89
2021/12/18 04:32:27;;;;;;;7.57;1.90;;;6.40;99.90;;;;;;5074433;28;20131;-90
2021/12/18 04:34:53;;;;;;;8.33;2.00;;;6.30;99.90;;;;;;5072918;28;20381;-89
2021/12/18 04:37:23;;;;;;;7.17;1.60;;;5.50;99.90;;;;;;5074049;28;20059;-90
2021/12/18 04:39:50;;;;;;;6.63;1.70;;;5.40;99.90;;;;;;5072782;28;20511;-90
2021/12/18 04:42:28;;;;;;;6.10;1.60;;;5.30;99.90;;;;;;5073286;28;20068;-90
2021/12/18 04:44:53;;;;;;;8.23;1.90;;;5.70;99.90;;;;;;5073344;28;20481;-90
2021/12/18 04:47:34;;;;;;;9.27;1.90;;;5.80;99.90;;;;;;5073847;28;20170;-90
2021/12/18 04:50:00;;;;;;;8.97;2.03;;;5.50;99.90;;;;;;5072625;28;20044;-90
2021/12/18 04:52:38;;;;;;;10.00;2.10;;;5.00;99.90;;;;;;5073230;28;20111;-91
2021/12/18 04:55:05;;;;;;;8.70;1.97;;;5.30;99.90;;;;;;5072073;22;20044;-89
2021/12/18 04:57:34;;;;;;;7.60;2.00;;;5.50;99.90;;;;;;5076100;28;20040;-90
2021/12/18 05:00:00;;;;;;;8.50;1.90;;;5.20;99.90;;;;;;5077308;28;20036;-90
2021/12/18 05:02:43;;;;;;;6.40;1.67;;;5.80;99.90;;;;;;5075163;28;20522;-90
2021/12/18 05:05:10;;;;;;;8.23;1.80;;;5.20;99.90;;;;;;5093526;28;20040;-90
2021/12/18 05:07:54;;;;;;;8.27;1.87;;;6.00;99.90;;;;;;5075684;28;20483;-90
2021/12/18 05:10:23;;;;;;;9.27;2.20;;;5.60;99.90;;;;;;5075562;28;20086;-90
2021/12/18 05:12:49;;;;;;;8.40;1.97;;;5.00;99.90;;;;;;5076346;28;20436;-90
2021/12/18 05:16:05;;;;;;;12.77;2.30;;;5.10;99.90;;;;;;5080635;22;20078;-90
2021/12/18 05:19:22;;;;;;;8.87;2.23;;;5.20;99.90;;;;;;5075329;28;20062;-90
2021/12/18 05:21:54;;;;;;;11.40;2.40;;;5.30;99.90;;;;;;5088463;28;20079;-89
2021/12/18 05:24:20;;;;;;;13.23;2.90;;;4.70;99.90;;;;;;5084811;28;20040;-90
2021/12/18 05:26:49;;;;;;;11.70;2.50;;;5.00;99.90;;;;;;5075625;28;20135;-90
2021/12/18 05:29:15;;;;;;;11.53;2.33;;;5.10;99.90;;;;;;5083401;22;20049;-90
2021/12/18 05:31:41;;;;;;;15.70;2.87;;;5.10;99.90;;;;;;5053860;28;20052;-91
2021/12/18 05:34:07;;;;;;;10.90;2.40;;;4.90;99.90;;;;;;5061859;22;20094;-90
2021/12/18 05:37:13;;;;;;;14.87;3.07;;;6.40;99.90;;;;;;5094293;28;20052;-90
2021/12/18 05:39:39;;;;;;;17.10;3.10;;;5.10;99.90;;;;;;5074900;28;20056;-90
2021/12/18 05:42:23;;;;;;;16.90;2.93;;;5.10;99.90;;;;;;5075817;28;20039;-90
2021/12/18 05:44:49;;;;;;;19.73;3.78;;;5.40;99.90;;;;;;5074817;28;20040;-90
2021/12/18 05:49:52;;;;;;;14.83;2.80;;;5.40;99.90;;;;;;5107077;22;20090;-90
2021/12/18 05:52:27;;;;;;;17.77;3.10;;;5.20;99.90;;;;;;5080661;28;20036;-90
2021/12/18 05:54:52;;;;;;;15.50;2.97;;;5.70;99.90;;;;;;5100527;28;20027;-90
2021/12/18 05:57:21;;;;;;;19.23;3.33;;;5.20;99.90;;;;;;5100177;28;20055;-90
2021/12/18 05:59:47;;;;;;;23.73;3.33;;;5.70;99.90;;;;;;5096348;28;20036;-90
2021/12/18 06:02:22;;;;;;;15.53;3.10;;;5.50;99.90;;;;;;5075977;28;20483;-90
2021/12/18 06:05:03;;;;;;;17.73;3.13;;;5.40;99.90;;;;;;5075642;28;20557;-90
2021/12/18 06:07:52;;;;;;;16.97;3.30;;;5.20;99.90;;;;;;5075142;28;20040;-90
2021/12/18 06:10:22;;;;;;;14.67;3.30;;;5.90;99.90;;;;;;5075613;28;20135;-90
2021/12/18 06:13:06;;;;;;;17.73;3.13;;;5.60;99.90;;;;;;5082269;22;20128;-90
2021/12/18 06:15:47;;;;;;;13.88;3.00;;;5.30;99.90;;;;;;5076094;28;20106;-90
2021/12/18 06:18:13;;;;;;;13.77;2.40;;;6.00;99.90;;;;;;5075630;28;20126;-90
2021/12/18 06:23:54;;;;;;;;;;;5.60;99.90;;;;;;5076144;28;20139;-90
2021/12/18 06:26:29;;;;;;;15.47;2.63;;;5.50;99.90;;;;;;5075611;28;19949;-89
2021/12/18 06:28:55;;;;;;;14.43;2.93;;;5.80;99.90;;;;;;5075317;28;20048;-91
2021/12/18 06:31:22;;;;;;;15.67;3.07;;;5.30;99.90;;;;;;5076087;28;20051;-90
2021/12/18 06:34:05;;;;;;;21.57;3.20;;;5.30;99.90;;;;;;5074223;28;20072;-90
2021/12/18 06:36:31;;;;;;;34.65;19.85;;;6.20;99.90;;;;;;5076602;28;20047;-90
2021/12/18 06:39:09;;;;;;;27.90;4.43;;;5.70;99.90;;;;;;5075866;28;20051;-90
2021/12/18 06:41:49;;;;;;;55.00;38.27;;;6.00;99.90;;;;;;5079988;28;20047;-90
2021/12/18 06:44:35;;;;;;;63.27;37.50;;;6.40;99.90;;;;;;5080571;28;20044;-91
2021/12/18 06:47:16;;;;;;;46.73;31.33;;;5.90;99.90;;;;;;5080071;28;20625;-90
2021/12/18 06:49:42;;;;;;;29.43;5.07;;;6.20;99.90;;;;;;5078931;28;20059;-90
2021/12/18 06:52:11;;;;;;;32.13;6.17;;;6.20;99.90;;;;;;5090663;22;21042;-91
2021/12/18 06:55:03;;;;;;;32.87;12.90;;;5.20;99.90;;;;;;5068880;22;20056;-91
2021/12/18 06:57:34;;;;;;;39.30;20.63;;;4.40;99.90;;;;;;5061569;28;20044;-91
2021/12/18 07:00:12;;;;;;;42.93;27.93;;;6.70;99.90;;;;;;5064127;28;20080;-92
2021/12/18 07:02:42;;;;;;;25.30;7.40;;;5.50;99.90;;;;;;5077917;28;20098;-89
2021/12/18 07:05:09;;;;;;;35.73;25.57;;;6.20;99.90;;;;;;5063555;28;20040;-89
2021/12/18 07:07:35;;;;;;;29.30;19.33;;;5.30;99.90;;;;;;5065472;28;20070;-91
2021/12/18 07:10:12;;;;;;;144.37;74.33;;;4.80;99.90;;;;;;5061983;28;20055;-90
2021/12/18 07:15:11;;;;;;;17.30;4.57;;;5.60;99.90;;;;;;5146067;22;20040;-89
2021/12/18 07:17:46;;;;;;;29.30;14.37;;;5.50;99.90;;;;;;5107417;28;20040;-90
2021/12/18 07:20:12;;;;;;;19.33;5.60;;;5.50;99.90;;;;;;5098050;28;20122;-90
2021/12/18 07:22:38;;;;;;;76.33;39.07;;;6.20;99.90;;;;;;5096859;28;20141;-90
2021/12/18 07:25:13;;;;;;;36.93;21.33;;;6.10;99.90;;;;;;5108684;28;20048;-91
2021/12/18 07:27:43;;;;;;;62.30;52.00;;;5.60;99.90;;;;;;5091830;22;20577;-91
2021/12/18 07:33:16;;;;;;;27.03;15.87;;;5.50;99.90;;;;;;5086175;22;20072;-90
2021/12/18 07:38:19;;;;;;;22.47;8.97;;;5.60;99.90;;;;;;5081807;22;20059;-91
2021/12/18 07:40:47;;;;;;;17.40;4.00;;;6.90;99.90;;;;;;5077968;28;20048;-90
2021/12/18 07:43:29;;;;;;;36.03;18.87;;;5.40;99.90;;;;;;5061312;28;20053;-90
2021/12/18 07:46:15;;;;;;;26.60;11.83;;;5.40;99.90;;;;;;5061515;28;20044;-90
2021/12/18 07:48:53;;;;;;;36.70;17.53;;;5.50;99.90;;;;;;5060073;28;20546;-90
2021/12/18 07:51:18;;;;;;;26.17;8.23;;;5.80;99.90;;;;;;5085279;22;20610;-91
2021/12/18 07:53:47;;;;;;;25.20;5.93;;;6.30;99.90;;;;;;5060334;28;20066;-90
2021/12/18 07:56:13;;;;;;;31.83;13.90;;;5.40;99.90;;;;;;5059851;28;20050;-91
2021/12/18 07:58:39;;;;;;;32.63;18.43;;;5.50;99.90;;;;;;5076723;28;20080;-90
2021/12/18 08:01:21;;;;;;;27.90;12.27;;;5.40;99.90;;;;;;5058438;28;20044;-84
2021/12/18 08:03:48;;;;;;;19.60;5.20;;;6.60;99.90;;;;;;5056840;28;20052;-84
2021/12/18 08:06:20;;;;;;;23.43;9.40;;;5.70;99.90;;;;;;5056928;28;20053;-84
2021/12/18 08:08:46;;;;;;;23.10;7.70;;;6.20;99.90;;;;;;5056811;28;20047;-84
2021/12/18 08:11:19;;;;;;;20.07;5.90;;;5.60;99.90;;;;;;5057044;28;20381;-84
2021/12/18 08:13:45;;;;;;;18.63;4.28;;;5.50;99.90;;;;;;5056096;28;20037;-83
2021/12/18 08:16:10;;;;;;;17.30;4.43;;;6.20;99.90;;;;;;5056798;28;20377;-85
2021/12/18 08:18:42;;;;;;;18.50;4.97;;;5.70;99.90;;;;;;5056909;28;20378;-84
2021/12/18 08:21:08;;;;;;;18.23;3.97;;;5.60;99.90;;;;;;5056093;28;20044;-84
2021/12/18 08:23:43;;;;;;;15.83;4.00;;;6.00;99.90;;;;;;5074799;28;20429;-84
2021/12/18 08:26:08;;;;;;;16.17;5.20;;;5.60;99.90;;;;;;5056951;28;20048;-83
2021/12/18 08:28:34;;;;;;;17.50;4.00;;;5.60;99.90;;;;;;5056342;28;20059;-83
2021/12/18 08:31:00;;;;;;;27.33;12.30;;;6.10;99.90;;;;;;5056410;28;20051;-83
2021/12/18 08:33:38;;;;;;;55.20;34.57;;;5.80;99.90;;;;;;5055547;28;20103;-84
2021/12/18 08:36:16;;;;;;;27.93;14.90;;;5.70;99.90;;;;;;5056089;28;20487;-83
2021/12/18 08:38:42;;;;;;;93.90;64.47;;;5.80;99.90;;;;;;5056479;28;20499;-84
2021/12/18 08:41:08;;;;;;;18.33;5.33;;;6.00;99.90;;;;;;5055260;28;20079;-84
2021/12/18 08:43:34;;;;;;;33.83;15.97;;;6.90;99.90;;;;;;5056975;28;20059;-84
2021/12/18 08:46:00;;;;;;;20.40;8.20;;;5.90;99.90;;;;;;5056169;28;20045;-84
2021/12/18 08:48:34;;;;;;;17.33;4.47;;;6.60;99.90;;;;;;5055707;28;20040;-84
2021/12/18 08:50:59;;;;;;;14.97;4.17;;;6.40;99.90;;;;;;5056948;28;20071;-84
2021/12/18 08:53:25;;;;;;;37.00;15.97;;;5.90;99.90;;;;;;5081841;28;20025;-83
2021/12/18 08:55:51;;;;;;;16.93;3.87;;;5.80;99.90;;;;;;5069016;28;20059;-83
2021/12/18 08:58:17;;;;;;;15.93;6.53;;;5.80;99.90;;;;;;5042283;28;20450;-83
2021/12/18 09:00:43;;;;;;;47.67;30.07;;;5.80;99.90;;;;;;5043696;28;20041;-83
2021/12/18 09:03:20;;;;;;;15.53;6.07;;;7.00;99.90;;;;;;5063154;28;20047;-83
2021/12/18 09:05:47;;;;;;;24.13;5.90;;;7.00;99.90;;;;;;5039302;28;20052;-84
2021/12/18 09:08:12;;;;;;;21.07;5.57;;;5.90;99.90;;;;;;5035778;28;20098;-85
2021/12/18 09:10:38;;;;;;;20.80;5.70;;;6.30;99.90;;;;;;5038798;28;20044;-85
2021/12/18 09:13:04;;;;;;;19.83;6.00;;;6.10;99.90;;;;;;5035546;28;20075;-84
2021/12/18 09:15:39;;;;;;;22.03;6.80;;;6.10;99.90;;;;;;5035456;28;20139;-84
2021/12/18 09:18:13;;;;;;;25.70;10.30;;;6.10;99.90;;;;;;5035472;28;20041;-83
2021/12/18 09:20:41;;;;;;;20.57;6.83;;;5.90;99.90;;;;;;5036121;28;20056;-83
2021/12/18 09:23:22;;;;;;;30.63;13.93;;;5.90;99.90;;;;;;5034855;28;20041;-83
2021/12/18 09:25:49;;;;;;;22.77;6.50;;;6.20;99.90;;;;;;5035316;28;20512;-83
2021/12/18 09:28:22;;;;;;;23.27;6.53;;;6.10;99.90;;;;;;5035468;28;20098;-83
2021/12/18 09:30:57;;;;;;;21.80;6.47;;;6.00;99.90;;;;;;5034377;28;20057;-83
2021/12/18 09:33:23;;;;;;;43.07;19.17;;;6.00;99.90;;;;;;5035576;28;20048;-84
2021/12/18 09:36:00;;;;;;;29.13;10.40;;;7.00;99.90;;;;;;5034771;28;20044;-83
2021/12/18 09:38:26;;;;;;;24.57;7.47;;;6.20;99.90;;;;;;5034278;28;20094;-83
2021/12/18 09:40:58;;;;;;;31.40;13.77;;;6.20;99.90;;;;;;5035122;28;20048;-83
2021/12/18 09:43:44;;;;;;;40.73;22.10;;;6.40;99.90;;;;;;5035490;28;20037;-83
2021/12/18 09:46:13;;;;;;;27.17;11.17;;;6.20;99.90;;;;;;5035232;28;20057;-83
2021/12/18 09:48:54;;;;;;;26.13;7.77;;;7.50;99.90;;;;;;5035217;28;20044;-83
2021/12/18 09:51:27;;;;;;;22.80;7.30;;;6.60;99.90;;;;;;5034291;28;20060;-83
2021/12/18 09:57:03;;;;;;;26.27;7.90;;;7.70;99.90;;;;;;5034410;28;20053;-83
2021/12/18 09:59:36;;;;;;;25.40;7.63;;;6.60;99.90;;;;;;5034096;28;20405;-83
2021/12/18 10:02:02;;;;;;;24.17;8.18;;;6.40;99.90;;;;;;5034510;28;20049;-83
2021/12/18 10:04:44;;;;;;;23.70;6.93;;;6.70;99.90;;;;;;5035163;28;20404;-83
2021/12/18 10:07:36;;;;;;;23.37;7.10;;;6.10;99.90;;;;;;5034682;28;20041;-83
2021/12/18 10:10:02;;;;;;;25.10;7.37;;;6.60;99.90;;;;;;5032521;28;20084;-83
2021/12/18 10:12:31;;;;;;;22.10;6.10;;;6.80;99.90;;;;;;5033985;28;20037;-83
2021/12/18 10:15:12;;;;;;;20.20;6.10;;;6.70;99.90;;;;;;5034290;28;20045;-83
2021/12/18 10:17:39;;;;;;;26.13;7.27;;;6.90;99.90;;;;;;5034975;28;20484;-83
2021/12/18 10:20:20;;;;;;;22.60;6.80;;;6.90;99.90;;;;;;5052904;28;20045;-83
2021/12/18 10:22:51;;;;;;;19.70;6.10;;;7.00;99.90;;;;;;5054412;28;20132;-83
2021/12/18 10:25:29;;;;;;;21.50;6.43;;;7.00;99.90;;;;;;5054530;28;20036;-83
2021/12/18 10:28:18;;;;;;;22.30;6.60;;;7.10;99.90;;;;;;5054025;28;20052;-84
2021/12/18 10:30:56;;;;;;;21.00;6.53;;;7.10;99.90;;;;;;5072242;28;20040;-83
2021/12/18 10:33:28;;;;;;;18.77;5.70;;;7.10;99.90;;;;;;5072126;28;20060;-83
2021/12/18 10:35:57;;;;;;;17.77;5.87;;;7.20;99.90;;;;;;5072257;28;20484;-84
2021/12/18 10:38:48;;;;;;;17.50;5.33;;;7.20;99.90;;;;;;5044215;28;20041;-82
2021/12/18 10:41:22;;;;;;;16.17;5.40;;;7.30;99.90;;;;;;5033860;28;20053;-83
2021/12/18 10:44:11;;;;;;;13.77;4.63;;;7.30;99.90;;;;;;5034642;28;20072;-82
2021/12/18 10:46:39;;;;;;;15.43;4.90;;;7.40;99.90;;;;;;5034830;28;20115;-83
2021/12/18 10:49:14;;;;;;;13.13;4.30;;;7.40;99.90;;;;;;5033222;28;20049;-82
2021/12/18 10:51:42;;;;;;;16.40;4.50;;;7.50;99.90;;;;;;5034070;28;20064;-82
2021/12/18 10:54:12;;;;;;;14.37;4.00;;;7.50;99.90;;;;;;5032240;28;20102;-83
2021/12/18 10:56:43;;;;;;;14.70;4.57;;;7.60;99.90;;;;;;5034491;28;20045;-83
2021/12/18 10:59:34;;;;;;;12.40;4.30;;;7.60;99.90;;;;;;5033425;28;20052;-83
2021/12/18 11:02:11;;;;;;;13.67;4.47;;;7.60;99.90;;;;;;5043032;28;20071;-83
2021/12/18 11:04:39;;;;;;;12.87;4.50;;;7.60;99.90;;;;;;5076120;28;20073;-83
2021/12/18 11:07:19;;;;;;;14.40;4.23;;;7.70;99.90;;;;;;5054011;28;20063;-82
2021/12/18 11:09:59;;;;;;;13.20;4.43;;;7.70;99.90;;;;;;5070832;28;20045;-82
2021/12/18 11:15:14;;;;;;;13.77;4.07;;;7.80;99.90;;;;;;5037684;28;20554;-82
2021/12/18 11:17:41;;;;;;;14.57;4.00;;;7.80;99.90;;;;;;5054597;28;20136;-82
2021/12/18 11:20:07;;;;;;;13.27;4.30;;;7.80;99.90;;;;;;5053843;28;20435;-82
2021/12/18 11:22:33;;;;;;;14.80;4.13;;;7.90;99.90;;;;;;5053233;28;20056;-82
2021/12/18 11:25:06;;;;;;;13.13;4.10;;;7.90;99.90;;;;;;5053552;28;20048;-82
2021/12/18 11:27:33;;;;;;;15.27;4.17;;;8.00;99.90;;;;;;5075341;28;20554;-82
2021/12/18 11:30:02;;;;;;;15.93;4.47;;;8.00;99.90;;;;;;5073119;28;20048;-82
2021/12/18 11:32:34;;;;;;;13.07;3.93;;;8.00;99.90;;;;;;5057532;28;20036;-82
2021/12/18 11:35:03;;;;;;;12.70;4.23;;;8.20;99.90;;;;;;5073855;28;20063;-82
2021/12/18 11:37:38;;;;;;;13.97;4.20;;;8.10;99.90;;;;;;5056673;28;20507;-82
2021/12/18 11:40:05;;;;;;;15.20;4.23;;;8.10;99.90;;;;;;5056990;28;20048;-82
2021/12/18 11:42:33;;;;;;;12.07;3.70;;;8.10;99.90;;;;;;5055535;28;20135;-82
2021/12/18 11:45:03;;;;;;;19.77;4.63;;;8.10;99.90;;;;;;5046544;28;20400;-80
2021/12/18 11:47:35;;;;;;;13.83;3.97;;;8.10;99.90;;;;;;5045840;28;20091;-80
2021/12/18 11:50:09;;;;;;;18.10;5.17;;;8.10;99.90;;;;;;5045366;28;20094;-80
2021/12/18 11:52:57;;;;;;;14.80;4.80;;;8.20;99.90;;;;;;5046994;28;20052;-80
2021/12/18 11:55:25;;;;;;;18.70;5.47;;;8.10;99.90;;;;;;5062487;28;20037;-80
2021/12/18 11:57:58;;;;;;;15.00;4.67;;;8.10;99.90;;;;;;5043492;28;20079;-84
2021/12/18 12:00:33;;;;;;;17.27;5.25;;;8.10;99.90;;;;;;5037849;28;20056;-82
2021/12/18 12:02:59;;;;;;;17.93;4.20;;;8.20;99.90;;;;;;5036777;28;20051;-82
2021/12/18 12:05:40;;;;;;;19.63;4.70;;;8.20;99.90;;;;;;5036108;28;20041;-83
2021/12/18 12:08:42;;;;;;;15.33;4.60;;;8.90;99.90;;;;;;5036875;28;20048;-83
2021/12/18 12:11:25;;;;;;;16.87;4.40;;;8.20;99.90;;;;;;5036701;28;20041;-83
2021/12/18 12:13:58;;;;;;;12.85;4.35;;;8.20;99.90;;;;;;5036515;28;20041;-83
2021/12/18 12:16:42;;;;;;;17.02;4.45;;;8.20;99.90;;;;;;5036740;28;20071;-85
2021/12/18 12:19:10;;;;;;;14.70;4.30;;;8.20;99.90;;;;;;5053974;28;20053;-82
2021/12/18 12:21:41;;;;;;;21.93;4.50;;;8.20;99.90;;;;;;5036639;28;20401;-84
2021/12/18 12:24:08;;;;;;;12.10;4.23;;;8.20;99.90;;;;;;5036903;28;20040;-84
2021/12/18 12:26:35;;;;;;;11.37;3.70;;;8.20;99.90;;;;;;5053562;28;20384;-84
2021/12/18 12:29:01;;;;;;;12.30;4.43;;;8.20;99.90;;;;;;5036266;28;20072;-85
2021/12/18 12:31:28;;;;;;;14.03;4.30;;;8.20;99.90;;;;;;5052493;28;20491;-86
2021/12/18 12:34:23;;;;;;;14.60;4.53;;;8.30;99.90;;;;;;5054744;28;20044;-86
2021/12/18 12:36:50;;;;;;;11.60;3.80;;;8.40;99.90;;;;;;5056484;28;20052;-86
2021/12/18 12:39:17;;;;;;;14.03;4.43;;;8.30;99.90;;;;;;5073051;28;20149;-87
2021/12/18 12:41:48;;;;;;;12.77;4.57;;;8.20;99.90;;;;;;5055159;28;20049;-84
2021/12/18 12:44:25;;;;;;;13.40;4.00;;;8.50;99.90;;;;;;5056850;28;20127;-83
2021/12/18 12:47:15;;;;;;;11.37;3.70;;;8.30;99.90;;;;;;5072013;28;20382;-84
2021/12/18 12:49:42;;;;;;;10.73;3.90;;;8.30;99.90;;;;;;5055732;28;20044;-84
2021/12/18 12:52:12;;;;;;;11.10;3.80;;;8.30;99.90;;;;;;5055907;28;20060;-84
2021/12/18 12:54:51;;;;;;;13.33;3.50;;;8.30;99.90;;;;;;5072041;28;20423;-85
2021/12/18 12:57:23;;;;;;;12.40;3.70;;;8.30;99.90;;;;;;5073698;28;20049;-85
2021/12/18 12:59:59;;;;;;;12.40;3.47;;;8.30;99.90;;;;;;5073451;28;20049;-85
2021/12/18 13:02:26;;;;;;;12.50;3.60;;;8.30;99.90;;;;;;5073567;28;20480;-85
2021/12/18 13:05:03;;;;;;;14.27;3.53;;;8.30;99.90;;;;;;5072381;28;20087;-85
2021/12/18 13:07:29;;;;;;;9.73;3.33;;;8.20;99.90;;;;;;5055432;28;20052;-84
2021/12/18 13:09:54;;;;;;;12.17;3.20;;;7.90;99.90;;;;;;5058553;28;20074;-85
2021/12/18 13:12:20;;;;;;;10.77;3.10;;;8.20;99.90;;;;;;5055805;28;20109;-85
2021/12/18 13:14:48;;;;;;;13.60;3.40;;;8.20;99.90;;;;;;5054354;28;20044;-85
2021/12/18 13:17:18;;;;;;;10.27;2.80;;;8.20;99.90;;;;;;5055222;28;20036;-85
2021/12/18 13:19:56;;;;;;;11.20;3.10;;;8.20;99.90;;;;;;5055302;28;20041;-85
2021/12/18 13:22:28;;;;;;;9.00;3.10;;;8.20;99.90;;;;;;5055137;28;20052;-85
2021/12/18 13:25:20;;;;;;;11.27;2.90;;;8.20;99.90;;;;;;5055226;28;20067;-85
2021/12/18 13:28:04;;;;;;;10.33;3.10;;;8.20;99.90;;;;;;5053015;28;20063;-85
2021/12/18 13:30:33;;;;;;;11.23;4.00;;;8.90;99.90;;;;;;5054846;28;20449;-85
2021/12/18 13:33:01;;;;;;;11.33;3.87;;;8.10;99.90;;;;;;5055182;28;20043;-86
2021/12/18 13:35:39;;;;;;;12.17;3.80;;;8.20;99.90;;;;;;5055148;28;20040;-87
2021/12/18 13:38:12;;;;;;;9.93;3.10;;;8.20;99.90;;;;;;5070590;28;20075;-85
2021/12/18 13:40:59;;;;;;;9.23;3.13;;;8.10;99.90;;;;;;5072150;28;20040;-85
2021/12/18 13:43:37;;;;;;;10.17;3.53;;;8.10;99.90;;;;;;5053997;28;20059;-85
2021/12/18 13:49:09;;;;;;;12.50;3.10;;;8.10;99.90;;;;;;5074593;22;20052;-84
2021/12/18 13:51:38;;;;;;;11.43;3.23;;;8.70;99.90;;;;;;5053889;28;20040;-86
2021/12/18 13:54:16;;;;;;;11.00;2.80;;;8.80;99.90;;;;;;5054775;28;20102;-86
2021/12/18 13:56:49;;;;;;;12.97;3.17;;;7.90;99.90;;;;;;5054641;28;20044;-85
2021/12/18 13:59:39;;;;;;;11.77;3.03;;;8.60;99.90;;;;;;5054470;28;20071;-87
2021/12/18 14:02:07;;;;;;;13.73;3.37;;;8.20;99.90;;;;;;5054845;28;20076;-86
2021/12/18 14:04:52;;;;;;;10.47;3.43;;;8.10;99.90;;;;;;5054148;28;20079;-85
2021/12/18 14:07:28;;;;;;;11.37;3.77;;;7.90;99.90;;;;;;5054563;28;20048;-87
2021/12/18 14:09:59;;;;;;;13.00;4.07;;;8.80;99.90;;;;;;5055012;28;20036;-85
2021/12/18 14:12:38;;;;;;;11.03;4.47;;;7.80;99.90;;;;;;5054034;28;20056;-85
2021/12/18 14:15:17;;;;;;;17.87;6.67;;;7.70;99.90;;;;;;5054336;28;20424;-85
2021/12/18 14:18:00;;;;;;;17.93;6.63;;;8.00;99.90;;;;;;5054079;28;20400;-84
2021/12/18 14:20:46;;;;;;;12.20;4.70;;;8.40;99.90;;;;;;5054622;28;20047;-85
2021/12/18 14:23:31;;;;;;;14.60;4.60;;;9.00;99.90;;;;;;5087911;28;20559;-85
2021/12/18 14:26:25;;;;;;;11.70;4.40;;;8.10;99.90;;;;;;5053498;28;20040;-84
2021/12/18 14:29:31;;;;;;;11.53;4.13;;;8.10;99.90;;;;;;5054496;28;20083;-85
2021/12/18 14:32:07;;;;;;;12.83;3.97;;;8.10;99.90;;;;;;5053876;28;20289;-85
2021/12/18 14:34:46;;;;;;;14.43;4.03;;;7.90;99.90;;;;;;5054032;28;20188;-84
2021/12/18 14:37:15;;;;;;;13.27;3.90;;;8.10;99.90;;;;;;5053959;28;20091;-84
2021/12/18 14:39:44;;;;;;;14.17;4.20;;;8.00;99.90;;;;;;5053214;28;20044;-85
2021/12/18 14:42:34;;;;;;;14.83;4.40;;;8.00;99.90;;;;;;5054583;28;20048;-86
2021/12/18 14:45:10;;;;;;;11.77;3.67;;;8.00;99.90;;;;;;5054295;28;20052;-85
2021/12/18 14:47:42;;;;;;;11.37;4.30;;;8.00;99.90;;;;;;5087055;28;20095;-85
2021/12/18 14:50:24;;;;;;;17.00;11.07;;;8.00;99.90;;;;;;5054236;28;20044;-84